Time,TemperatureF,DewpointF,PressureIn,WindDirection,WindDirectionDegrees,WindSpeedMPH,WindSpeedGustMPH,Humidity,HourlyPrecipIn,Conditions,Clouds,dailyrainin,SoftwareType,DateUTC
2013-01-20 00:02:00,24.0,10.0,-100.00,North,-999,-999.0,-999.0,54,-99.99,,,-99.99,,2013-01-20 07:02:00,
2013-01-20 00:11:00,22.0,10.0,-100.00,North,-999,-999.0,-999.0,58,-99.99,,,-99.99,,2013-01-20 07:11:00,
2013-01-20 00:22:00,22.0,10.0,-100.00,North,-999,-999.0,-999.0,58,-99.99,,,-99.99,,2013-01-20 07:22:00,
2013-01-20 00:32:00,22.0,10.0,-100.00,North,-999,-999.0,-999.0,58,-99.99,,,-99.99,,2013-01-20 07:32:00,
2013-01-20 00:42:00,22.0,10.0,-100.00,North,-999,-999.0,-999.0,59,-99.99,,,-99.99,,2013-01-20 07:42:00,
2013-01-20 00:52:00,22.0,10.0,-100.00,North,-999,-999.0,-999.0,59,-99.99,,,-99.99,,2013-01-20 07:52:00,
2013-01-20 01:02:00,22.0,10.0,-100.00,North,-999,-999.0,-999.0,59,-99.99,,,-99.99,,2013-01-20 08:02:00,
2013-01-20 01:12:00,21.0,10.0,-100.00,North,-999,-999.0,-999.0,60,-99.99,,,-99.99,,2013-01-20 08:12:00,
2013-01-20 01:22:00,21.0,10.0,-100.00,North,-999,-999.0,-999.0,60,-99.99,,,-99.99,,2013-01-20 08:22:00,
2013-01-20 01:32:00,21.0,10.0,-100.00,North,-999,-999.0,-999.0,60,-99.99,,,-99.99,,2013-01-20 08:32:00,
2013-01-20 01:42:00,22.0,9.0,-100.00,North,-999,-999.0,-999.0,55,-99.99,,,-99.99,,2013-01-20 08:42:00,
2013-01-20 01:52:00,22.0,9.0,-100.00,North,-999,-999.0,-999.0,55,-99.99,,,-99.99,,2013-01-20 08:52:00,
2013-01-20 02:02:00,22.0,9.0,-100.00,North,-999,-999.0,-999.0,55,-99.99,,,-99.99,,2013-01-20 09:02:00,
2013-01-20 02:12:00,23.0,9.0,-100.00,North,-999,-999.0,-999.0,54,-99.99,,,-99.99,,2013-01-20 09:12:00,
2013-01-20 02:22:00,23.0,9.0,-100.00,North,-999,-999.0,-999.0,54,-99.99,,,-99.99,,2013-01-20 09:22:00,
2013-01-20 02:33:00,23.0,9.0,-100.00,North,-999,-999.0,-999.0,54,-99.99,,,-99.99,,2013-01-20 09:33:00,
2013-01-20 02:42:00,22.0,8.0,-100.00,North,-999,-999.0,-999.0,53,-99.99,,,-99.99,,2013-01-20 09:42:00,
2013-01-20 02:52:00,22.0,8.0,-100.00,North,-999,-999.0,-999.0,53,-99.99,,,-99.99,,2013-01-20 09:52:00,
2013-01-20 03:02:00,22.0,8.0,-100.00,North,-999,-999.0,-999.0,53,-99.99,,,-99.99,,2013-01-20 10:02:00,
2013-01-20 03:11:00,22.0,7.0,-100.00,North,-999,-999.0,-999.0,51,-99.99,,,-99.99,,2013-01-20 10:11:00,
2013-01-20 03:22:00,22.0,7.0,-100.00,North,-999,-999.0,-999.0,51,-99.99,,,-99.99,,2013-01-20 10:22:00,
2013-01-20 03:32:00,22.0,7.0,-100.00,North,-999,-999.0,-999.0,51,-99.99,,,-99.99,,2013-01-20 10:32:00,
2013-01-20 03:42:00,22.0,7.0,-100.00,North,-999,-999.0,-999.0,53,-99.99,,,-99.99,,2013-01-20 10:42:00,
2013-01-20 03:52:00,22.0,7.0,-100.00,North,-999,-999.0,-999.0,53,-99.99,,,-99.99,,2013-01-20 10:52:00,
2013-01-20 04:02:00,21.0,7.0,-100.00,North,-999,-999.0,-999.0,52,-99.99,,,-99.99,,2013-01-20 11:02:00,
2013-01-20 04:12:00,21.0,6.0,-100.00,North,-999,-999.0,-999.0,51,-99.99,,,-99.99,,2013-01-20 11:12:00,
2013-01-20 04:22:00,21.0,6.0,-100.00,North,-999,-999.0,-999.0,51,-99.99,,,-99.99,,2013-01-20 11:22:00,
2013-01-20 04:32:00,21.0,6.0,-100.00,North,-999,-999.0,-999.0,51,-99.99,,,-99.99,,2013-01-20 11:32:00,
2013-01-20 04:42:00,22.0,6.0,-100.00,North,-999,-999.0,-999.0,50,-99.99,,,-99.99,,2013-01-20 11:42:00,
2013-01-20 04:53:00,22.0,6.0,-100.00,North,-999,-999.0,-999.0,50,-99.99,,,-99.99,,2013-01-20 11:53:00,
2013-01-20 05:02:00,22.0,6.0,-100.00,North,-999,-999.0,-999.0,50,-99.99,,,-99.99,,2013-01-20 12:02:00,
2013-01-20 05:12:00,21.0,5.0,-100.00,North,-999,-999.0,-999.0,49,-99.99,,,-99.99,,2013-01-20 12:12:00,
2013-01-20 05:22:00,21.0,5.0,-100.00,North,-999,-999.0,-999.0,49,-99.99,,,-99.99,,2013-01-20 12:22:00,
2013-01-20 05:33:00,21.0,5.0,-100.00,North,-999,-999.0,-999.0,49,-99.99,,,-99.99,,2013-01-20 12:33:00,
2013-01-20 05:42:00,21.0,5.0,-100.00,North,-999,-999.0,-999.0,49,-99.99,,,-99.99,,2013-01-20 12:42:00,
2013-01-20 05:53:00,21.0,5.0,-100.00,North,-999,-999.0,-999.0,49,-99.99,,,-99.99,,2013-01-20 12:53:00,
2013-01-20 06:02:00,21.0,5.0,-100.00,North,-999,-999.0,-999.0,50,-99.99,,,-99.99,,2013-01-20 13:02:00,
2013-01-20 06:12:00,21.0,6.0,-100.00,North,-999,-999.0,-999.0,50,-99.99,,,-99.99,,2013-01-20 13:12:00,
2013-01-20 06:23:00,21.0,6.0,-100.00,North,-999,-999.0,-999.0,50,-99.99,,,-99.99,,2013-01-20 13:23:00,
2013-01-20 06:42:00,23.0,5.0,-100.00,North,-999,-999.0,-999.0,45,-99.99,,,-99.99,,2013-01-20 13:42:00,
2013-01-20 06:53:00,23.0,5.0,-100.00,North,-999,-999.0,-999.0,45,-99.99,,,-99.99,,2013-01-20 13:53:00,
2013-01-20 07:02:00,22.0,5.0,-100.00,North,-999,-999.0,-999.0,46,-99.99,,,-99.99,,2013-01-20 14:02:00,
2013-01-20 07:12:00,21.0,5.0,-100.00,North,-999,-999.0,-999.0,49,-99.99,,,-99.99,,2013-01-20 14:12:00,
2013-01-20 07:22:00,21.0,5.0,-100.00,North,-999,-999.0,-999.0,49,-99.99,,,-99.99,,2013-01-20 14:22:00,
2013-01-20 07:42:00,23.0,4.0,-100.00,North,-999,-999.0,-999.0,43,-99.99,,,-99.99,,2013-01-20 14:42:00,
2013-01-20 07:53:00,23.0,4.0,-100.00,North,-999,-999.0,-999.0,43,-99.99,,,-99.99,,2013-01-20 14:53:00,
2013-01-20 08:03:00,23.0,4.0,-100.00,North,-999,-999.0,-999.0,43,-99.99,,,-99.99,,2013-01-20 15:03:00,
2013-01-20 08:12:00,22.0,4.0,-100.00,North,-999,-999.0,-999.0,45,-99.99,,,-99.99,,2013-01-20 15:12:00,
2013-01-20 08:22:00,22.0,4.0,-100.00,North,-999,-999.0,-999.0,45,-99.99,,,-99.99,,2013-01-20 15:22:00,
2013-01-20 08:32:00,22.0,4.0,-100.00,North,-999,-999.0,-999.0,45,-99.99,,,-99.99,,2013-01-20 15:32:00,
2013-01-20 08:42:00,22.0,4.0,-100.00,North,-999,-999.0,-999.0,45,-99.99,,,-99.99,,2013-01-20 15:42:00,
2013-01-20 08:53:00,22.0,4.0,-100.00,North,-999,-999.0,-999.0,45,-99.99,,,-99.99,,2013-01-20 15:53:00,
2013-01-20 09:02:00,22.0,5.0,-100.00,North,-999,-999.0,-999.0,46,-99.99,,,-99.99,,2013-01-20 16:02:00,
2013-01-20 09:12:00,22.0,4.0,-100.00,North,-999,-999.0,-999.0,45,-99.99,,,-99.99,,2013-01-20 16:12:00,
2013-01-20 09:22:00,22.0,4.0,-100.00,North,-999,-999.0,-999.0,45,-99.99,,,-99.99,,2013-01-20 16:22:00,
2013-01-20 09:32:00,22.0,4.0,-100.00,North,-999,-999.0,-999.0,45,-99.99,,,-99.99,,2013-01-20 16:32:00,
2013-01-20 09:42:00,24.0,5.0,-100.00,North,-999,-999.0,-999.0,43,-99.99,,,-99.99,,2013-01-20 16:42:00,
2013-01-20 09:53:00,24.0,5.0,-100.00,North,-999,-999.0,-999.0,43,-99.99,,,-99.99,,2013-01-20 16:53:00,
2013-01-20 10:02:00,24.0,5.0,-100.00,North,-999,-999.0,-999.0,43,-99.99,,,-99.99,,2013-01-20 17:02:00,
2013-01-20 10:12:00,25.0,6.0,-100.00,North,-999,-999.0,-999.0,43,-99.99,,,-99.99,,2013-01-20 17:12:00,
2013-01-20 10:42:00,27.0,8.0,-100.00,North,-999,-999.0,-999.0,42,-99.99,,,-99.99,,2013-01-20 17:42:00,
2013-01-20 10:53:00,27.0,8.0,-100.00,North,-999,-999.0,-999.0,42,-99.99,,,-99.99,,2013-01-20 17:53:00,
2013-01-20 11:02:00,28.0,8.0,-100.00,North,-999,-999.0,-999.0,41,-99.99,,,-99.99,,2013-01-20 18:02:00,
2013-01-20 11:12:00,30.0,9.0,-100.00,North,-999,-999.0,-999.0,41,-99.99,,,-99.99,,2013-01-20 18:12:00,
2013-01-20 11:23:00,30.0,9.0,-100.00,North,-999,-999.0,-999.0,41,-99.99,,,-99.99,,2013-01-20 18:23:00,
2013-01-20 11:33:00,30.0,9.0,-100.00,North,-999,-999.0,-999.0,41,-99.99,,,-99.99,,2013-01-20 18:33:00,
2013-01-20 11:42:00,39.0,13.0,-100.00,North,-999,-999.0,-999.0,34,-99.99,,,-99.99,,2013-01-20 18:42:00,
2013-01-20 11:53:00,39.0,13.0,-100.00,North,-999,-999.0,-999.0,34,-99.99,,,-99.99,,2013-01-20 18:53:00,
2013-01-20 12:02:00,39.0,13.0,-100.00,North,-999,-999.0,-999.0,34,-99.99,,,-99.99,,2013-01-20 19:02:00,
2013-01-20 12:12:00,42.0,15.0,-100.00,North,-999,-999.0,-999.0,33,-99.99,,,-99.99,,2013-01-20 19:12:00,
2013-01-20 12:22:00,42.0,15.0,-100.00,North,-999,-999.0,-999.0,33,-99.99,,,-99.99,,2013-01-20 19:22:00,
2013-01-20 12:42:00,45.0,17.0,-100.00,North,-999,-999.0,-999.0,32,-99.99,,,-99.99,,2013-01-20 19:42:00,
2013-01-20 12:53:00,45.0,17.0,-100.00,North,-999,-999.0,-999.0,32,-99.99,,,-99.99,,2013-01-20 19:53:00,
2013-01-20 13:02:00,45.0,17.0,-100.00,North,-999,-999.0,-999.0,33,-99.99,,,-99.99,,2013-01-20 20:02:00,
2013-01-20 13:12:00,43.0,17.0,-100.00,North,-999,-999.0,-999.0,35,-99.99,,,-99.99,,2013-01-20 20:12:00,
2013-01-20 13:22:00,43.0,17.0,-100.00,North,-999,-999.0,-999.0,35,-99.99,,,-99.99,,2013-01-20 20:22:00,
2013-01-20 13:42:00,47.0,17.0,-100.00,North,-999,-999.0,-999.0,30,-99.99,,,-99.99,,2013-01-20 20:42:00,
2013-01-20 13:53:00,47.0,17.0,-100.00,North,-999,-999.0,-999.0,30,-99.99,,,-99.99,,2013-01-20 20:53:00,
2013-01-20 14:03:00,45.0,19.0,-100.00,North,-999,-999.0,-999.0,34,-99.99,,,-99.99,,2013-01-20 21:03:00,
2013-01-20 14:12:00,44.0,17.0,-100.00,North,-999,-999.0,-999.0,33,-99.99,,,-99.99,,2013-01-20 21:12:00,
2013-01-20 14:22:00,44.0,17.0,-100.00,North,-999,-999.0,-999.0,33,-99.99,,,-99.99,,2013-01-20 21:22:00,
2013-01-20 14:43:00,38.0,17.0,-100.00,North,-999,-999.0,-999.0,41,-99.99,,,-99.99,,2013-01-20 21:43:00,
2013-01-20 14:53:00,38.0,17.0,-100.00,North,-999,-999.0,-999.0,41,-99.99,,,-99.99,,2013-01-20 21:53:00,
2013-01-20 15:03:00,35.0,14.0,-100.00,North,-999,-999.0,-999.0,41,-99.99,,,-99.99,,2013-01-20 22:03:00,
2013-01-20 15:12:00,40.0,17.0,-100.00,North,-999,-999.0,-999.0,38,-99.99,,,-99.99,,2013-01-20 22:12:00,
2013-01-20 15:22:00,40.0,17.0,-100.00,North,-999,-999.0,-999.0,38,-99.99,,,-99.99,,2013-01-20 22:22:00,
2013-01-20 15:42:00,39.0,18.0,-100.00,North,-999,-999.0,-999.0,40,-99.99,,,-99.99,,2013-01-20 22:42:00,
2013-01-20 15:53:00,37.0,16.0,-100.00,North,-999,-999.0,-999.0,43,-99.99,,,-99.99,,2013-01-20 22:53:00,
2013-01-20 16:03:00,37.0,16.0,-100.00,North,-999,-999.0,-999.0,43,-99.99,,,-99.99,,2013-01-20 23:03:00,
2013-01-20 16:12:00,35.0,16.0,-100.00,North,-999,-999.0,-999.0,45,-99.99,,,-99.99,,2013-01-20 23:12:00,
2013-01-20 16:22:00,35.0,16.0,-100.00,North,-999,-999.0,-999.0,45,-99.99,,,-99.99,,2013-01-20 23:22:00,
2013-01-20 16:33:00,35.0,16.0,-100.00,North,-999,-999.0,-999.0,45,-99.99,,,-99.99,,2013-01-20 23:33:00,
2013-01-20 16:42:00,26.0,13.0,-100.00,North,-999,-999.0,-999.0,56,-99.99,,,-99.99,,2013-01-20 23:42:00,
2013-01-20 17:02:00,26.0,12.0,-100.00,North,-999,-999.0,-999.0,54,-99.99,,,-99.99,,2013-01-21 00:02:00,
2013-01-20 17:12:00,25.0,12.0,-100.00,North,-999,-999.0,-999.0,56,-99.99,,,-99.99,,2013-01-21 00:12:00,
2013-01-20 17:22:00,25.0,12.0,-100.00,North,-999,-999.0,-999.0,56,-99.99,,,-99.99,,2013-01-21 00:22:00,
2013-01-20 17:32:00,25.0,12.0,-100.00,North,-999,-999.0,-999.0,56,-99.99,,,-99.99,,2013-01-21 00:32:00,
2013-01-20 17:42:00,25.0,12.0,-100.00,North,-999,-999.0,-999.0,55,-99.99,,,-99.99,,2013-01-21 00:42:00,
2013-01-20 17:53:00,25.0,12.0,-100.00,North,-999,-999.0,-999.0,55,-99.99,,,-99.99,,2013-01-21 00:53:00,
2013-01-20 18:02:00,25.0,10.0,-100.00,North,-999,-999.0,-999.0,51,-99.99,,,-99.99,,2013-01-21 01:02:00,
2013-01-20 18:12:00,25.0,9.0,-100.00,North,-999,-999.0,-999.0,50,-99.99,,,-99.99,,2013-01-21 01:12:00,
2013-01-20 18:22:00,25.0,9.0,-100.00,North,-999,-999.0,-999.0,50,-99.99,,,-99.99,,2013-01-21 01:22:00,
2013-01-20 18:43:00,23.0,9.0,-100.00,North,-999,-999.0,-999.0,53,-99.99,,,-99.99,,2013-01-21 01:43:00,
2013-01-20 18:53:00,23.0,9.0,-100.00,North,-999,-999.0,-999.0,53,-99.99,,,-99.99,,2013-01-21 01:53:00,
2013-01-20 19:03:00,23.0,9.0,-100.00,North,-999,-999.0,-999.0,53,-99.99,,,-99.99,,2013-01-21 02:03:00,
2013-01-20 19:12:00,23.0,9.0,-100.00,North,-999,-999.0,-999.0,53,-99.99,,,-99.99,,2013-01-21 02:12:00,
2013-01-20 19:23:00,23.0,9.0,-100.00,North,-999,-999.0,-999.0,53,-99.99,,,-99.99,,2013-01-21 02:23:00,
2013-01-20 19:33:00,23.0,9.0,-100.00,North,-999,-999.0,-999.0,53,-99.99,,,-99.99,,2013-01-21 02:33:00,
2013-01-20 19:42:00,23.0,7.0,-100.00,North,-999,-999.0,-999.0,50,-99.99,,,-99.99,,2013-01-21 02:42:00,
2013-01-20 19:53:00,23.0,7.0,-100.00,North,-999,-999.0,-999.0,50,-99.99,,,-99.99,,2013-01-21 02:53:00,
2013-01-20 20:02:00,22.0,6.0,-100.00,North,-999,-999.0,-999.0,49,-99.99,,,-99.99,,2013-01-21 03:02:00,
2013-01-20 20:12:00,23.0,6.0,-100.00,North,-999,-999.0,-999.0,47,-99.99,,,-99.99,,2013-01-21 03:12:00,
2013-01-20 20:23:00,23.0,6.0,-100.00,North,-999,-999.0,-999.0,47,-99.99,,,-99.99,,2013-01-21 03:23:00,
2013-01-20 20:32:00,23.0,6.0,-100.00,North,-999,-999.0,-999.0,47,-99.99,,,-99.99,,2013-01-21 03:32:00,
2013-01-20 20:43:00,22.0,5.0,-100.00,North,-999,-999.0,-999.0,45,-99.99,,,-99.99,,2013-01-21 03:43:00,
2013-01-20 20:53:00,22.0,5.0,-100.00,North,-999,-999.0,-999.0,45,-99.99,,,-99.99,,2013-01-21 03:53:00,
2013-01-20 21:02:00,23.0,5.0,-100.00,North,-999,-999.0,-999.0,45,-99.99,,,-99.99,,2013-01-21 04:02:00,
2013-01-20 21:12:00,23.0,5.0,-100.00,North,-999,-999.0,-999.0,45,-99.99,,,-99.99,,2013-01-21 04:12:00,
2013-01-20 21:22:00,23.0,5.0,-100.00,North,-999,-999.0,-999.0,45,-99.99,,,-99.99,,2013-01-21 04:22:00,
2013-01-20 21:32:00,23.0,5.0,-100.00,North,-999,-999.0,-999.0,45,-99.99,,,-99.99,,2013-01-21 04:32:00,
2013-01-20 21:42:00,22.0,5.0,-100.00,North,-999,-999.0,-999.0,46,-99.99,,,-99.99,,2013-01-21 04:42:00,
2013-01-20 21:53:00,22.0,5.0,-100.00,North,-999,-999.0,-999.0,46,-99.99,,,-99.99,,2013-01-21 04:53:00,
2013-01-20 22:03:00,23.0,5.0,-100.00,North,-999,-999.0,-999.0,46,-99.99,,,-99.99,,2013-01-21 05:03:00,
2013-01-20 22:12:00,22.0,5.0,-100.00,North,-999,-999.0,-999.0,46,-99.99,,,-99.99,,2013-01-21 05:12:00,
2013-01-20 22:22:00,22.0,5.0,-100.00,North,-999,-999.0,-999.0,46,-99.99,,,-99.99,,2013-01-21 05:22:00,
2013-01-20 22:33:00,22.0,5.0,-100.00,North,-999,-999.0,-999.0,46,-99.99,,,-99.99,,2013-01-21 05:33:00,
2013-01-20 22:42:00,22.0,5.0,-100.00,North,-999,-999.0,-999.0,47,-99.99,,,-99.99,,2013-01-21 05:42:00,
2013-01-20 22:53:00,22.0,5.0,-100.00,North,-999,-999.0,-999.0,47,-99.99,,,-99.99,,2013-01-21 05:53:00,
2013-01-20 23:02:00,22.0,5.0,-100.00,North,-999,-999.0,-999.0,49,-99.99,,,-99.99,,2013-01-21 06:02:00,
2013-01-20 23:12:00,22.0,5.0,-100.00,North,-999,-999.0,-999.0,47,-99.99,,,-99.99,,2013-01-21 06:12:00,
2013-01-20 23:23:00,22.0,5.0,-100.00,North,-999,-999.0,-999.0,47,-99.99,,,-99.99,,2013-01-21 06:23:00,
2013-01-20 23:43:00,22.0,5.0,-100.00,North,-999,-999.0,-999.0,47,-99.99,,,-99.99,,2013-01-21 06:43:00,
2013-01-20 23:53:00,22.0,5.0,-100.00,North,-999,-999.0,-999.0,47,-99.99,,,-99.99,,2013-01-21 06:53:00,